createdAt,value
2023-03-15T00:00:02.331Z,7.20
2023-03-15T00:01:09.453Z,7.20
2023-03-15T00:02:11.725Z,7.10
2023-03-15T00:03:15.236Z,7.00
2023-03-15T00:04:17.424Z,7.00
2023-03-15T00:05:21.656Z,7.00
2023-03-15T00:06:23.756Z,7.00
2023-03-15T00:07:26.668Z,7.00
2023-03-15T00:08:28.619Z,7.00
2023-03-15T00:09:31.593Z,7.00
2023-03-15T00:10:33.543Z,7.10
2023-03-15T00:11:36.460Z,7.10
2023-03-15T00:12:40.019Z,7.10
2023-03-15T00:13:42.968Z,7.10
2023-03-15T00:14:45.195Z,7.10
2023-03-15T00:15:49.192Z,7.10
2023-03-15T00:16:51.128Z,7.00
2023-03-15T00:17:54.103Z,7.00
2023-03-15T00:18:56.449Z,7.00
2023-03-15T00:19:59.402Z,7.00
2023-03-15T00:21:01.927Z,7.00
2023-03-15T00:22:04.955Z,7.00
2023-03-15T00:23:07.035Z,7.00
2023-03-15T00:24:10.702Z,7.00
2023-03-15T00:25:12.641Z,7.00
2023-03-15T00:26:16.219Z,7.00
2023-03-15T00:27:18.211Z,7.00
2023-03-15T00:28:22.899Z,7.00
2023-03-15T00:29:24.934Z,7.00
2023-03-15T00:30:27.916Z,7.00
2023-03-15T00:31:29.976Z,7.00
2023-03-15T00:32:33.024Z,7.00
2023-03-15T00:33:35.208Z,7.00
2023-03-15T00:34:38.246Z,7.00
2023-03-15T00:35:41.717Z,7.00
2023-03-15T00:36:44.624Z,7.00
2023-03-15T00:37:46.607Z,7.00
2023-03-15T00:38:49.535Z,7.00
2023-03-15T00:39:52.185Z,7.00
2023-03-15T00:40:55.085Z,7.00
2023-03-15T00:41:57.174Z,6.90
2023-03-15T00:43:00.308Z,6.90
2023-03-15T00:44:04.386Z,7.00
2023-03-15T00:45:10.593Z,6.90
2023-03-15T00:46:13.322Z,6.90
2023-03-15T00:47:16.282Z,6.80
2023-03-15T00:48:18.216Z,6.80
2023-03-15T00:49:21.254Z,6.80
2023-03-15T00:50:23.710Z,6.80
2023-03-15T00:51:26.662Z,6.80
2023-03-15T00:52:35.828Z,6.70
2023-03-15T00:53:40.302Z,6.70
2023-03-15T00:54:42.265Z,6.80
2023-03-15T00:55:45.308Z,6.80
2023-03-15T00:56:47.260Z,6.80
2023-03-15T00:57:50.397Z,6.80
2023-03-15T00:58:53.216Z,6.80
2023-03-15T00:59:57.969Z,6.80
2023-03-15T01:01:01.142Z,6.80
2023-03-15T01:02:04.983Z,6.80
2023-03-15T01:03:07.271Z,6.80
2023-03-15T01:04:11.994Z,7.00
2023-03-15T01:05:15.144Z,6.80
2023-03-15T01:06:19.803Z,6.80
2023-03-15T01:07:21.737Z,6.90
2023-03-15T01:08:25.372Z,6.90
2023-03-15T01:09:27.385Z,6.90
2023-03-15T01:10:30.741Z,6.80
2023-03-15T01:11:32.843Z,6.70
2023-03-15T01:12:35.968Z,6.70
2023-03-15T01:13:38.363Z,6.70
2023-03-15T01:14:41.250Z,6.70
2023-03-15T01:15:47.498Z,6.60
2023-03-15T01:16:50.568Z,6.60
2023-03-15T01:17:52.511Z,6.60
2023-03-15T01:18:55.775Z,6.60
2023-03-15T01:19:58.959Z,6.70
2023-03-15T01:21:02.135Z,6.80
2023-03-15T01:22:04.208Z,6.80
2023-03-15T01:23:07.131Z,6.70
2023-03-15T01:24:13.599Z,6.70
2023-03-15T01:25:16.738Z,6.70
2023-03-15T01:26:18.804Z,6.60
2023-03-15T01:27:22.201Z,6.60
2023-03-15T01:28:24.151Z,6.60
2023-03-15T01:29:27.466Z,6.60
2023-03-15T01:30:29.660Z,6.60
2023-03-15T01:31:34.022Z,6.60
2023-03-15T01:32:36.158Z,6.60
2023-03-15T01:33:39.050Z,6.60
2023-03-15T01:34:41.097Z,6.60
2023-03-15T01:35:44.095Z,6.60
2023-03-15T01:36:46.074Z,6.60
2023-03-15T01:37:50.924Z,6.60
2023-03-15T01:38:54.906Z,6.60
2023-03-15T01:39:57.909Z,6.60
2023-03-15T01:41:00.507Z,6.60
2023-03-15T01:42:03.991Z,6.50
2023-03-15T01:43:16.688Z,6.50
2023-03-15T01:44:21.944Z,6.50
2023-03-15T01:45:53.152Z,6.50
2023-03-15T01:46:57.525Z,6.50
2023-03-15T01:47:59.638Z,6.40
2023-03-15T01:49:07.737Z,6.40
2023-03-15T01:50:11.488Z,6.40
2023-03-15T01:51:22.973Z,6.40
2023-03-15T01:52:29.099Z,6.40
2023-03-15T01:53:34.046Z,6.40
2023-03-15T01:54:41.630Z,6.40
2023-03-15T01:55:45.034Z,6.60
2023-03-15T01:56:52.789Z,6.40
2023-03-15T01:57:59.358Z,6.40
2023-03-15T01:59:04.964Z,6.50
2023-03-15T02:00:12.103Z,6.50
2023-03-15T02:01:15.745Z,6.40
2023-03-15T02:02:22.778Z,6.40
2023-03-15T02:03:31.080Z,6.40
2023-03-15T02:04:39.858Z,6.40
2023-03-15T02:05:46.210Z,6.40
2023-03-15T02:06:49.614Z,6.40
2023-03-15T02:07:54.590Z,6.40
2023-03-15T02:09:03.636Z,6.50
2023-03-15T02:10:09.512Z,6.40
2023-03-15T02:11:14.565Z,6.40
2023-03-15T02:12:17.188Z,6.40
2023-03-15T02:13:23.315Z,6.40
2023-03-15T02:14:25.341Z,6.40
2023-03-15T02:15:28.369Z,6.50
2023-03-15T02:16:31.065Z,6.40
2023-03-15T02:17:38.298Z,6.40
2023-03-15T02:18:40.516Z,6.40
2023-03-15T02:19:52.759Z,6.50
2023-03-15T02:21:04.271Z,6.40
2023-03-15T02:22:16.716Z,6.40
2023-03-15T02:23:23.187Z,6.50
2023-03-15T02:24:37.012Z,6.40
2023-03-15T02:25:47.275Z,6.40
2023-03-15T02:26:53.426Z,6.50
2023-03-15T02:27:58.581Z,6.50
2023-03-15T02:29:01.284Z,6.50
2023-03-15T02:30:06.955Z,6.50
2023-03-15T02:31:09.276Z,6.50
2023-03-15T02:32:12.170Z,6.40
2023-03-15T02:33:18.951Z,6.40
2023-03-15T02:34:25.496Z,6.40
2023-03-15T02:35:29.448Z,6.40
2023-03-15T02:36:32.440Z,6.40
2023-03-15T02:37:34.586Z,6.40
2023-03-15T02:38:37.542Z,6.40
2023-03-15T02:39:39.543Z,6.50
2023-03-15T02:40:42.723Z,6.40
2023-03-15T02:41:48.973Z,6.40
2023-03-15T02:42:56.387Z,6.40
2023-03-15T02:44:04.329Z,6.30
2023-03-15T02:45:08.595Z,6.30
2023-03-15T02:46:11.309Z,6.30
2023-03-15T02:47:17.167Z,6.30
2023-03-15T02:48:20.190Z,6.30
2023-03-15T02:49:26.236Z,6.40
2023-03-15T02:50:28.144Z,6.40
2023-03-15T02:51:31.267Z,6.30
2023-03-15T02:52:33.172Z,6.30
2023-03-15T02:53:36.128Z,6.30
2023-03-15T02:54:39.283Z,6.30
2023-03-15T02:55:42.509Z,6.20
2023-03-15T02:56:44.484Z,6.30
2023-03-15T02:57:47.495Z,6.20
2023-03-15T02:58:49.411Z,6.20
2023-03-15T02:59:55.050Z,6.10
2023-03-15T03:00:57.024Z,6.00
2023-03-15T03:02:00.126Z,5.90
2023-03-15T03:03:02.150Z,5.90
2023-03-15T03:04:05.260Z,6.00
2023-03-15T03:05:07.870Z,6.00
2023-03-15T03:06:11.713Z,5.90
2023-03-15T03:07:13.671Z,5.90
2023-03-15T03:08:17.022Z,5.90
2023-03-15T03:09:19.014Z,5.80
2023-03-15T03:10:22.546Z,5.70
2023-03-15T03:11:24.492Z,5.70
2023-03-15T03:12:27.433Z,5.70
2023-03-15T03:13:29.399Z,5.60
2023-03-15T03:14:32.326Z,5.60
2023-03-15T03:15:35.686Z,5.60
2023-03-15T03:16:38.670Z,5.60
2023-03-15T03:17:40.664Z,5.50
2023-03-15T03:18:43.601Z,5.60
2023-03-15T03:19:45.514Z,5.60
2023-03-15T03:20:48.861Z,5.50
2023-03-15T03:21:52.287Z,5.60
2023-03-15T03:22:55.964Z,5.60
2023-03-15T03:23:57.899Z,5.50
2023-03-15T03:25:00.799Z,5.50
2023-03-15T03:26:03.377Z,5.50
2023-03-15T03:27:06.847Z,5.50
2023-03-15T03:28:08.828Z,5.50
2023-03-15T03:29:11.768Z,5.30
2023-03-15T03:30:14.687Z,5.30
2023-03-15T03:31:22.140Z,5.40
2023-03-15T03:32:24.159Z,5.50
2023-03-15T03:33:27.127Z,5.50
2023-03-15T03:34:29.144Z,5.40
2023-03-15T03:35:33.187Z,5.40
2023-03-15T03:36:35.318Z,5.40
2023-03-15T03:37:38.223Z,5.50
2023-03-15T03:38:40.838Z,5.50
2023-03-15T03:39:43.856Z,5.60
2023-03-15T03:40:46.029Z,5.50
2023-03-15T03:41:49.003Z,5.50
2023-03-15T03:42:50.921Z,5.50
2023-03-15T03:43:54.064Z,5.50
2023-03-15T03:44:55.983Z,5.40
2023-03-15T03:45:58.940Z,5.40
2023-03-15T03:47:03.280Z,5.40
2023-03-15T03:48:05.724Z,5.40
2023-03-15T03:49:08.634Z,5.40
2023-03-15T03:50:11.592Z,5.40
2023-03-15T03:51:14.631Z,5.40
2023-03-15T03:52:16.555Z,5.50
2023-03-15T03:53:19.547Z,5.50
2023-03-15T03:54:21.562Z,5.50
2023-03-15T03:55:25.457Z,5.50
2023-03-15T03:56:27.600Z,5.50
2023-03-15T03:57:30.648Z,5.50
2023-03-15T03:58:32.694Z,5.50
2023-03-15T03:59:35.619Z,5.50
2023-03-15T04:00:37.918Z,5.50
2023-03-15T04:01:42.195Z,5.50
2023-03-15T04:02:45.558Z,5.50
2023-03-15T04:03:48.496Z,5.50
2023-03-15T04:04:54.838Z,5.50
2023-03-15T04:05:58.992Z,5.50
2023-03-15T04:07:01.019Z,5.40
2023-03-15T04:08:04.056Z,5.40
2023-03-15T04:09:05.968Z,5.40
2023-03-15T04:10:14.585Z,5.40
2023-03-15T04:11:17.595Z,5.30
2023-03-15T04:12:20.600Z,5.30
2023-03-15T04:13:23.881Z,5.40
2023-03-15T04:14:26.942Z,5.40
2023-03-15T04:15:28.931Z,5.50
2023-03-15T04:16:31.815Z,5.50
2023-03-15T04:17:33.752Z,5.60
2023-03-15T04:18:40.123Z,5.50
2023-03-15T04:19:42.060Z,5.50
2023-03-15T04:20:46.790Z,5.50
2023-03-15T04:21:48.816Z,5.50
2023-03-15T04:22:51.738Z,5.50
2023-03-15T04:23:53.938Z,5.50
2023-03-15T04:24:56.963Z,5.40
2023-03-15T04:25:58.973Z,5.50
2023-03-15T04:27:02.356Z,5.50
2023-03-15T04:28:04.349Z,5.60
2023-03-15T04:29:07.292Z,5.60
2023-03-15T04:30:10.876Z,5.60
2023-03-15T04:31:14.693Z,5.60
2023-03-15T04:32:18.015Z,5.50
2023-03-15T04:33:24.458Z,5.50
2023-03-15T04:34:28.482Z,5.60
2023-03-15T04:35:33.376Z,5.60
2023-03-15T04:36:35.555Z,5.60
2023-03-15T04:37:38.486Z,5.60
2023-03-15T04:38:40.440Z,5.60
2023-03-15T04:39:43.549Z,5.60
2023-03-15T04:40:45.884Z,7.60
2023-03-15T04:41:48.838Z,5.60
2023-03-15T04:42:50.856Z,5.60
2023-03-15T04:43:53.806Z,5.60
2023-03-15T04:44:55.782Z,5.70
2023-03-15T04:45:58.705Z,5.70
2023-03-15T04:47:00.721Z,5.70
2023-03-15T04:48:04.286Z,5.80
2023-03-15T04:49:06.304Z,5.70
2023-03-15T04:50:13.298Z,5.70
2023-03-15T04:51:15.248Z,5.60
2023-03-15T04:52:18.181Z,5.50
2023-03-15T04:53:20.135Z,5.50
2023-03-15T04:54:23.354Z,5.50
2023-03-15T04:55:25.403Z,5.60
2023-03-15T04:56:28.351Z,5.60
2023-03-15T04:57:30.503Z,5.60
2023-03-15T04:58:33.440Z,5.60
2023-03-15T04:59:35.401Z,5.60
2023-03-15T05:00:38.437Z,5.60
2023-03-15T05:01:40.612Z,5.70
2023-03-15T05:02:43.575Z,5.70
2023-03-15T05:03:45.558Z,5.70
2023-03-15T05:04:48.498Z,5.60
2023-03-15T05:05:51.849Z,5.70
2023-03-15T05:06:54.949Z,5.60
2023-03-15T05:07:56.995Z,5.60
2023-03-15T05:08:59.945Z,5.60
2023-03-15T05:10:02.568Z,5.60
2023-03-15T05:11:06.717Z,5.60
2023-03-15T05:12:09.353Z,5.60
2023-03-15T05:13:12.302Z,5.70
2023-03-15T05:14:14.504Z,5.70
2023-03-15T05:15:17.648Z,5.70
2023-03-15T05:16:19.637Z,5.70
2023-03-15T05:17:22.895Z,5.70
2023-03-15T05:18:25.000Z,5.60
2023-03-15T05:19:27.987Z,5.70
2023-03-15T05:20:30.086Z,5.70
2023-03-15T05:21:34.335Z,5.70
2023-03-15T05:22:36.427Z,5.70
2023-03-15T05:23:39.639Z,5.60
2023-03-15T05:24:41.557Z,5.60
2023-03-15T05:25:44.502Z,5.60
2023-03-15T05:26:46.604Z,5.60
2023-03-15T05:27:49.538Z,5.60
2023-03-15T05:28:52.370Z,5.60
2023-03-15T05:29:55.334Z,5.70
2023-03-15T05:31:00.431Z,5.70
2023-03-15T05:32:08.747Z,5.70
2023-03-15T05:33:11.222Z,5.80
2023-03-15T05:34:14.203Z,5.70
2023-03-15T05:35:16.287Z,5.70
2023-03-15T05:36:19.270Z,5.80
2023-03-15T05:37:22.990Z,5.70
2023-03-15T05:38:27.160Z,5.60
2023-03-15T05:39:29.911Z,5.60
2023-03-15T05:40:33.038Z,5.60
2023-03-15T05:41:35.278Z,5.60
2023-03-15T05:42:38.239Z,5.70
2023-03-15T05:43:40.199Z,5.60
2023-03-15T05:44:43.102Z,5.60
2023-03-15T05:45:47.085Z,5.60
2023-03-15T05:46:50.102Z,5.70
2023-03-15T05:47:52.028Z,5.70
2023-03-15T05:48:54.939Z,5.70
2023-03-15T05:49:56.929Z,5.70
2023-03-15T05:50:59.873Z,5.60
2023-03-15T05:52:01.785Z,5.50
2023-03-15T05:53:06.066Z,5.50
2023-03-15T05:54:08.099Z,5.50
2023-03-15T05:55:11.158Z,5.60
2023-03-15T05:56:13.128Z,5.60
2023-03-15T05:57:16.071Z,5.50
2023-03-15T05:58:18.999Z,5.60
2023-03-15T05:59:21.115Z,5.60
2023-03-15T06:00:24.163Z,5.50
2023-03-15T06:01:26.129Z,5.50
2023-03-15T06:02:29.088Z,5.60
2023-03-15T06:03:31.527Z,5.60
2023-03-15T06:04:34.624Z,5.60
2023-03-15T06:05:36.636Z,5.70
2023-03-15T06:06:39.571Z,5.60
2023-03-15T06:07:41.663Z,5.60
2023-03-15T06:08:45.894Z,5.60
2023-03-15T06:09:47.848Z,5.70
2023-03-15T06:10:50.812Z,5.60
2023-03-15T06:11:53.688Z,5.70
2023-03-15T06:12:55.983Z,5.60
2023-03-15T06:13:58.895Z,5.60
2023-03-15T06:15:00.832Z,5.50
2023-03-15T06:16:03.793Z,5.50
2023-03-15T06:17:05.813Z,5.50
2023-03-15T06:18:09.212Z,5.60
2023-03-15T06:19:11.139Z,5.50
2023-03-15T06:20:14.586Z,5.50
2023-03-15T06:21:16.527Z,5.50
2023-03-15T06:22:20.567Z,5.50
2023-03-15T06:23:22.533Z,5.60
2023-03-15T06:24:26.850Z,5.50
2023-03-15T06:25:30.566Z,5.50
2023-03-15T06:26:32.534Z,5.50
2023-03-15T06:27:35.441Z,5.50
2023-03-15T06:28:37.395Z,5.50
2023-03-15T06:29:40.382Z,5.50
2023-03-15T06:30:42.429Z,5.60
2023-03-15T06:31:45.467Z,5.60
2023-03-15T06:32:47.444Z,5.50
2023-03-15T06:33:50.562Z,5.50
2023-03-15T06:34:52.641Z,5.60
2023-03-15T06:35:55.650Z,5.60
2023-03-15T06:36:57.646Z,5.50
2023-03-15T06:38:01.158Z,5.50
2023-03-15T06:39:03.182Z,5.60
2023-03-15T06:40:09.102Z,5.60
2023-03-15T06:41:15.375Z,5.60
2023-03-15T06:42:18.674Z,5.70
2023-03-15T06:43:20.629Z,5.50
2023-03-15T06:44:23.518Z,5.50
2023-03-15T06:45:25.459Z,5.50
2023-03-15T06:46:28.422Z,5.50
2023-03-15T06:47:31.403Z,5.50
2023-03-15T06:48:33.711Z,5.50
2023-03-15T06:49:36.603Z,5.60
2023-03-15T06:50:46.890Z,5.70
2023-03-15T06:51:51.388Z,5.70
2023-03-15T06:52:53.399Z,5.70
2023-03-15T06:53:56.332Z,5.70
2023-03-15T06:54:59.242Z,5.80
2023-03-15T06:56:04.894Z,5.80
2023-03-15T06:57:08.022Z,5.90
2023-03-15T06:58:10.571Z,5.80
2023-03-15T06:59:13.563Z,5.90
2023-03-15T07:00:17.167Z,5.80
2023-03-15T07:01:20.100Z,5.90
2023-03-15T07:02:22.163Z,5.80
2023-03-15T07:03:25.187Z,5.80
2023-03-15T07:04:28.204Z,5.80
2023-03-15T07:05:31.351Z,5.80
2023-03-15T07:06:33.907Z,5.80
2023-03-15T07:07:36.980Z,5.90
2023-03-15T07:08:38.995Z,5.80
2023-03-15T07:09:42.538Z,5.90
2023-03-15T07:10:48.426Z,5.90
2023-03-15T07:11:52.679Z,5.80
2023-03-15T07:12:54.831Z,5.80
2023-03-15T07:13:58.550Z,5.80
2023-03-15T07:15:02.477Z,5.90
2023-03-15T07:16:06.180Z,5.90
2023-03-15T07:17:08.353Z,5.80
2023-03-15T07:18:11.342Z,5.80
2023-03-15T07:19:13.270Z,5.80
2023-03-15T07:20:16.331Z,5.90
2023-03-15T07:21:19.276Z,5.80
2023-03-15T07:22:22.753Z,5.90
2023-03-15T07:23:25.761Z,5.90
2023-03-15T07:24:28.389Z,5.80
2023-03-15T07:25:31.345Z,5.90
2023-03-15T07:26:33.325Z,5.80
2023-03-15T07:27:37.797Z,5.90
2023-03-15T07:28:39.724Z,6.00
2023-03-15T07:29:42.680Z,6.00
2023-03-15T07:30:53.407Z,6.10
2023-03-15T07:31:56.357Z,6.00
2023-03-15T07:32:59.445Z,6.00
2023-03-15T07:34:02.399Z,5.90
2023-03-15T07:35:04.738Z,5.90
2023-03-15T07:36:09.267Z,5.90
2023-03-15T07:37:11.605Z,6.00
2023-03-15T07:38:15.375Z,6.00
2023-03-15T07:39:18.292Z,6.10
2023-03-15T07:40:21.329Z,6.10
2023-03-15T07:41:23.251Z,6.20
2023-03-15T07:42:26.277Z,6.20
2023-03-15T07:43:29.758Z,6.20
2023-03-15T07:44:32.707Z,6.10
2023-03-15T07:45:35.107Z,6.20
2023-03-15T07:46:38.504Z,6.20
2023-03-15T07:47:40.985Z,6.10
2023-03-15T07:48:45.667Z,2.80
2023-03-15T07:49:50.381Z,6.00
2023-03-15T07:50:53.583Z,5.00
2023-03-15T07:51:56.811Z,5.00
2023-03-15T07:52:58.746Z,5.30
2023-03-15T07:54:01.769Z,5.40
2023-03-15T07:55:08.280Z,5.50
2023-03-15T07:56:12.015Z,5.70
2023-03-15T07:57:14.900Z,5.80
2023-03-15T07:58:19.738Z,6.00
2023-03-15T07:59:24.852Z,6.10
2023-03-15T08:00:28.415Z,6.10
2023-03-15T08:01:30.524Z,6.10
2023-03-15T08:02:33.468Z,6.00
2023-03-15T08:03:36.416Z,6.00
2023-03-15T08:04:38.394Z,6.00
2023-03-15T08:05:41.346Z,6.00
2023-03-15T08:06:44.552Z,5.90
2023-03-15T08:07:47.197Z,6.00
2023-03-15T08:08:50.071Z,6.00
2023-03-15T08:09:53.068Z,6.00
2023-03-15T08:10:55.907Z,6.00
2023-03-15T08:11:58.896Z,6.00
2023-03-15T08:13:00.816Z,6.10
2023-03-15T08:14:03.730Z,6.10
2023-03-15T08:15:08.100Z,6.10
2023-03-15T08:16:11.124Z,6.10
2023-03-15T08:17:16.172Z,6.20
2023-03-15T08:18:19.179Z,6.10
2023-03-15T08:19:22.143Z,6.20
2023-03-15T08:20:25.035Z,6.20
2023-03-15T08:21:27.059Z,6.20
2023-03-15T08:22:30.609Z,6.20
2023-03-15T08:23:32.612Z,6.20
2023-03-15T08:24:36.026Z,6.20
2023-03-15T08:25:40.899Z,6.10
2023-03-15T08:26:44.376Z,6.00
2023-03-15T08:27:47.629Z,6.10
2023-03-15T08:28:50.538Z,6.10
2023-03-15T08:29:53.438Z,6.10
2023-03-15T08:30:57.821Z,6.10
2023-03-15T08:31:59.869Z,6.10
2023-03-15T08:33:03.620Z,3.90
2023-03-15T08:34:05.657Z,6.20
2023-03-15T08:35:09.926Z,6.30
2023-03-15T08:36:13.106Z,6.30
2023-03-15T08:37:16.116Z,6.30
2023-03-15T08:38:18.058Z,6.30
2023-03-15T08:39:23.900Z,6.40
2023-03-15T08:40:26.087Z,6.50
2023-03-15T08:41:29.053Z,6.50
2023-03-15T08:42:31.112Z,6.50
2023-03-15T08:43:34.084Z,6.50
2023-03-15T08:44:36.449Z,6.50
2023-03-15T08:45:56.774Z,6.50
2023-03-15T08:47:05.134Z,6.40
2023-03-15T08:48:08.288Z,6.40
2023-03-15T08:49:10.234Z,6.50
2023-03-15T08:50:15.142Z,6.50
2023-03-15T08:51:17.156Z,6.50
2023-03-15T08:52:20.328Z,6.50
2023-03-15T08:53:23.284Z,6.40
2023-03-15T08:54:27.395Z,6.50
2023-03-15T08:55:30.362Z,6.60
2023-03-15T08:56:32.504Z,6.60
2023-03-15T08:57:35.435Z,6.70
2023-03-15T08:58:38.534Z,6.70
2023-03-15T08:59:40.528Z,6.70
2023-03-15T09:00:43.469Z,6.60
2023-03-15T09:01:46.391Z,6.60
2023-03-15T09:02:51.872Z,6.50
2023-03-15T09:03:54.852Z,6.60
2023-03-15T09:04:56.902Z,6.40
2023-03-15T09:06:00.448Z,6.40
2023-03-15T09:07:02.508Z,6.50
2023-03-15T09:08:05.780Z,6.50
2023-03-15T09:09:07.852Z,6.60
2023-03-15T09:10:14.890Z,6.60
2023-03-15T09:11:17.821Z,6.60
2023-03-15T09:12:20.360Z,6.60
2023-03-15T09:13:23.400Z,6.60
2023-03-15T09:14:25.326Z,6.60
2023-03-15T09:15:28.320Z,6.60
2023-03-15T09:16:31.267Z,6.60
2023-03-15T09:17:34.272Z,6.60
2023-03-15T09:18:40.479Z,6.70
2023-03-15T09:19:42.428Z,6.60
2023-03-15T09:20:45.540Z,6.70
2023-03-15T09:21:47.455Z,6.70
2023-03-15T09:22:54.763Z,6.70
2023-03-15T09:23:57.719Z,6.70
2023-03-15T09:24:59.623Z,6.70
2023-03-15T09:26:02.970Z,6.80
2023-03-15T09:27:05.145Z,6.80
2023-03-15T09:28:12.259Z,6.80
2023-03-15T09:29:14.237Z,6.90
2023-03-15T09:30:17.533Z,6.90
2023-03-15T09:31:19.525Z,6.90
2023-03-15T09:32:23.768Z,6.90
2023-03-15T09:33:27.151Z,6.90
2023-03-15T09:34:39.904Z,6.90
2023-03-15T09:35:44.704Z,7.00
2023-03-15T09:36:52.888Z,7.10
2023-03-15T09:37:56.108Z,7.10
2023-03-15T09:38:59.115Z,7.10
2023-03-15T09:40:01.760Z,7.30
2023-03-15T09:41:05.286Z,7.30
2023-03-15T09:42:15.107Z,7.20
2023-03-15T09:43:42.012Z,7.30
2023-03-15T09:44:49.117Z,7.30
2023-03-15T09:46:04.826Z,7.30
2023-03-15T09:47:17.844Z,7.30
2023-03-15T09:48:24.989Z,7.30
2023-03-15T09:49:39.121Z,7.30
2023-03-15T09:50:45.845Z,7.30
2023-03-15T09:51:56.003Z,7.40
2023-03-15T09:53:02.577Z,7.40
2023-03-15T09:54:11.187Z,7.50
2023-03-15T09:55:18.003Z,7.60
2023-03-15T09:56:26.055Z,7.60
2023-03-15T09:57:37.195Z,7.50
2023-03-15T09:58:41.545Z,7.70
2023-03-15T09:59:46.658Z,7.70
2023-03-15T10:00:53.651Z,7.80
2023-03-15T10:01:56.651Z,7.90
2023-03-15T10:03:03.734Z,8.00
2023-03-15T10:04:11.306Z,7.90
2023-03-15T10:05:21.133Z,8.00
2023-03-15T10:06:27.615Z,8.00
2023-03-15T10:07:30.025Z,7.90
2023-03-15T10:08:34.365Z,7.80
2023-03-15T10:09:36.367Z,7.60
2023-03-15T10:10:44.534Z,7.40
2023-03-15T10:11:57.666Z,7.30
2023-03-15T10:13:09.939Z,7.30
2023-03-15T10:14:25.722Z,7.30
2023-03-15T10:15:37.941Z,7.50
2023-03-15T10:16:42.663Z,7.50
2023-03-15T10:17:54.127Z,7.70
2023-03-15T10:19:06.800Z,7.80
2023-03-15T10:20:13.955Z,7.90
2023-03-15T10:21:32.122Z,8.20
2023-03-15T10:22:41.844Z,8.40
2023-03-15T10:23:48.921Z,8.50
2023-03-15T10:24:56.031Z,8.50
2023-03-15T10:25:58.204Z,8.50
2023-03-15T10:27:15.268Z,8.40
2023-03-15T10:28:25.608Z,8.60
2023-03-15T10:29:28.992Z,8.60
2023-03-15T10:30:33.096Z,8.70
2023-03-15T10:31:44.956Z,8.60
2023-03-15T10:32:53.333Z,8.50
2023-03-15T10:33:57.076Z,8.50
2023-03-15T10:34:59.144Z,8.60
2023-03-15T10:36:11.120Z,8.70
2023-03-15T10:37:16.023Z,8.90
2023-03-15T10:38:21.464Z,9.00
2023-03-15T10:39:25.788Z,8.90
2023-03-15T10:40:42.390Z,8.70
2023-03-15T10:41:47.429Z,8.50
2023-03-15T10:42:50.409Z,8.40
2023-03-15T10:43:58.912Z,8.50
2023-03-15T10:45:14.660Z,8.60
2023-03-15T10:46:24.584Z,8.70
2023-03-15T10:47:28.773Z,8.90
2023-03-15T10:48:32.376Z,8.70
2023-03-15T10:49:36.909Z,8.90
2023-03-15T10:50:39.739Z,9.00
2023-03-15T10:51:46.036Z,9.00
2023-03-15T10:52:51.356Z,9.00
2023-03-15T10:53:57.349Z,9.10
2023-03-15T10:55:04.385Z,9.20
2023-03-15T10:56:13.980Z,9.20
2023-03-15T10:57:19.606Z,9.10
2023-03-15T10:58:27.585Z,9.20
2023-03-15T10:59:32.451Z,9.30
2023-03-15T11:00:36.380Z,9.60
2023-03-15T11:01:39.449Z,9.70
2023-03-15T11:02:49.932Z,9.70
2023-03-15T11:04:03.609Z,9.70
2023-03-15T11:05:17.679Z,9.80
2023-03-15T11:06:25.446Z,9.90
2023-03-15T11:07:27.560Z,10.10
2023-03-15T11:08:40.916Z,10.10
2023-03-15T11:09:44.777Z,10.10
2023-03-15T11:10:55.351Z,10.20
2023-03-15T11:12:02.928Z,10.20
2023-03-15T11:13:20.525Z,7.50
2023-03-15T11:14:22.713Z,10.20
2023-03-15T11:15:25.677Z,10.20
2023-03-15T11:16:36.401Z,10.10
2023-03-15T11:17:45.606Z,10.00
2023-03-15T11:18:53.423Z,10.00
2023-03-15T11:19:59.400Z,10.10
2023-03-15T11:21:06.271Z,10.10
2023-03-15T11:22:14.626Z,10.10
2023-03-15T11:23:22.036Z,10.10
2023-03-15T11:24:29.295Z,10.20
2023-03-15T11:25:33.184Z,10.30
2023-03-15T11:26:38.372Z,10.20
2023-03-15T11:27:43.390Z,10.20
2023-03-15T11:28:51.820Z,10.20
2023-03-15T11:29:58.411Z,10.00
2023-03-15T11:31:01.855Z,10.00
2023-03-15T11:32:14.412Z,10.00
2023-03-15T11:33:33.560Z,10.00
2023-03-15T11:34:45.298Z,10.10
2023-03-15T11:35:48.416Z,10.10
2023-03-15T11:37:07.680Z,10.00
2023-03-15T11:38:16.042Z,10.00
2023-03-15T11:39:28.795Z,9.90
2023-03-15T11:40:35.588Z,9.80
2023-03-15T11:41:42.731Z,9.70
2023-03-15T11:42:50.546Z,9.50
2023-03-15T11:44:12.716Z,9.50
2023-03-15T11:45:22.169Z,9.30
2023-03-15T11:46:30.846Z,9.40
2023-03-15T11:47:43.976Z,9.30
2023-03-15T11:48:50.487Z,9.30
2023-03-15T11:49:56.036Z,9.60
2023-03-15T11:51:00.181Z,9.90
2023-03-15T11:52:03.187Z,9.80
2023-03-15T11:53:08.197Z,9.90
2023-03-15T11:54:14.368Z,10.00
2023-03-15T11:55:21.012Z,10.00
2023-03-15T11:56:25.510Z,9.90
2023-03-15T11:57:44.152Z,9.70
2023-03-15T11:59:04.020Z,9.70
2023-03-15T12:00:49.141Z,9.80
2023-03-15T12:01:56.195Z,9.70
2023-03-15T12:03:00.332Z,9.70
2023-03-15T12:04:42.272Z,9.70
2023-03-15T12:05:49.213Z,9.80
2023-03-15T12:06:53.349Z,9.90
2023-03-15T12:08:05.867Z,10.10
2023-03-15T12:09:40.505Z,10.10
2023-03-15T12:10:49.577Z,10.10
2023-03-15T12:11:51.668Z,10.20
2023-03-15T12:12:59.735Z,10.30
2023-03-15T12:14:07.261Z,10.20
2023-03-15T12:15:44.019Z,10.00
2023-03-15T12:16:47.735Z,9.70
2023-03-15T12:17:51.331Z,9.80
2023-03-15T12:19:00.472Z,9.70
2023-03-15T12:20:09.299Z,9.80
2023-03-15T12:21:23.087Z,9.70
2023-03-15T12:22:30.899Z,10.00
2023-03-15T12:23:43.713Z,9.90
2023-03-15T12:24:48.116Z,9.90
2023-03-15T12:25:56.945Z,10.10
2023-03-15T12:27:03.234Z,10.00
2023-03-15T12:28:09.637Z,10.20
2023-03-15T12:29:18.236Z,10.20
2023-03-15T12:30:24.835Z,10.30
2023-03-15T12:31:43.378Z,10.50
2023-03-15T12:32:51.434Z,10.40
2023-03-15T12:33:58.349Z,10.40
2023-03-15T12:35:09.679Z,10.50
2023-03-15T12:36:20.719Z,10.60
2023-03-15T12:37:25.613Z,10.60
2023-03-15T12:38:36.418Z,10.60
2023-03-15T12:39:46.086Z,10.80
2023-03-15T12:40:54.602Z,10.70
2023-03-15T12:41:56.603Z,10.80
2023-03-15T12:43:03.143Z,10.90
2023-03-15T12:44:25.631Z,11.00
2023-03-15T12:45:45.421Z,11.00
2023-03-15T12:46:59.851Z,11.00
2023-03-15T12:48:26.331Z,10.70
2023-03-15T12:49:32.424Z,10.50
2023-03-15T12:50:38.595Z,10.40
2023-03-15T12:51:54.489Z,10.30
2023-03-15T12:53:01.417Z,10.30
2023-03-15T12:54:05.714Z,10.00
2023-03-15T12:55:14.988Z,9.90
2023-03-15T12:56:41.898Z,10.00
2023-03-15T12:57:50.254Z,10.10
2023-03-15T12:58:55.307Z,10.20
2023-03-15T13:00:01.858Z,10.20
2023-03-15T13:01:06.359Z,10.10
2023-03-15T13:02:42.608Z,10.10
2023-03-15T13:03:46.757Z,10.00
2023-03-15T13:04:50.220Z,10.10
2023-03-15T13:06:04.389Z,10.10
2023-03-15T13:07:30.526Z,10.20
2023-03-15T13:08:41.559Z,9.20
2023-03-15T13:10:20.036Z,8.70
2023-03-15T13:11:28.379Z,9.40
2023-03-15T13:12:41.724Z,8.90
2023-03-15T13:14:01.221Z,8.20
2023-03-15T13:15:08.253Z,8.70
2023-03-15T13:16:25.586Z,8.30
2023-03-15T13:17:36.650Z,8.00
2023-03-15T13:18:49.949Z,7.60
2023-03-15T13:20:07.417Z,7.70
2023-03-15T13:21:17.602Z,8.30
2023-03-15T13:22:30.560Z,7.70
2023-03-15T13:23:34.912Z,7.50
2023-03-15T13:24:45.746Z,7.00
2023-03-15T13:25:58.889Z,8.30
2023-03-15T13:27:06.383Z,8.10
2023-03-15T13:28:17.222Z,7.80
2023-03-15T13:29:28.092Z,7.40
2023-03-15T13:30:35.995Z,7.80
2023-03-15T13:31:39.402Z,7.40
2023-03-15T13:32:41.652Z,7.40
2023-03-15T13:33:48.864Z,7.30
2023-03-15T13:34:51.929Z,7.40
2023-03-15T13:36:00.993Z,7.40
2023-03-15T13:37:04.391Z,7.40
2023-03-15T13:38:09.403Z,7.80
2023-03-15T13:39:19.345Z,7.90
2023-03-15T13:40:21.287Z,8.80
2023-03-15T13:41:26.210Z,9.20
2023-03-15T13:42:31.897Z,8.90
2023-03-15T13:43:37.723Z,8.00
2023-03-15T13:44:40.673Z,7.50
2023-03-15T13:45:43.315Z,7.10
2023-03-15T13:46:47.316Z,7.50
2023-03-15T13:47:49.537Z,7.40
2023-03-15T13:48:54.371Z,7.40
2023-03-15T13:49:57.956Z,7.50
2023-03-15T13:51:05.048Z,7.40
2023-03-15T13:52:12.271Z,7.40
2023-03-15T13:53:22.048Z,7.30
2023-03-15T13:54:28.526Z,6.90
2023-03-15T13:55:34.561Z,6.50
2023-03-15T13:56:49.609Z,6.80
2023-03-15T13:57:57.649Z,7.00
2023-03-15T13:59:04.634Z,6.90
2023-03-15T14:00:11.966Z,6.70
2023-03-15T14:01:17.250Z,6.70
2023-03-15T14:02:22.182Z,6.70
2023-03-15T14:03:25.173Z,6.50
2023-03-15T14:04:29.233Z,6.30
2023-03-15T14:05:33.551Z,6.30
2023-03-15T14:06:36.563Z,6.20
2023-03-15T14:07:41.544Z,6.20
2023-03-15T14:08:44.507Z,6.10
2023-03-15T14:09:46.603Z,6.10
2023-03-15T14:11:00.444Z,5.50
2023-03-15T14:12:05.683Z,5.50
2023-03-15T14:13:24.570Z,5.50
2023-03-15T14:14:29.779Z,5.50
2023-03-15T14:15:36.931Z,5.50
2023-03-15T14:17:01.197Z,5.50
2023-03-15T14:18:18.069Z,5.30
2023-03-15T14:19:22.848Z,5.30
2023-03-15T14:20:29.703Z,5.50
2023-03-15T14:21:33.601Z,5.50
2023-03-15T14:22:36.384Z,5.40
2023-03-15T14:23:42.527Z,5.00
2023-03-15T14:24:48.552Z,5.00
2023-03-15T14:25:56.757Z,4.80